Time;durP1;ratioP1;P1;durP2;ratioP2;P2;SDS_P1;SDS_P2;PMS_P1;PMS_P2;Temp;Humidity;BMP_temperature;BMP_pressure;BME280_temperature;BME280_humidity;BME280_pressure;Samples;Min_cycle;Max_cycle;Signal;HPM_P1;HPM_P2
2021/04/17 00:00:52;;;;;;;9.18;5.13;;;8.80;56.30;;;;;;6185833;23;20013;-54
2021/04/17 00:03:18;;;;;;;8.80;4.63;;;8.80;56.30;;;;;;6185669;23;20013;-54
2021/04/17 00:05:43;;;;;;;9.80;4.45;;;8.80;56.30;;;;;;6186150;23;20079;-54
2021/04/17 00:08:09;;;;;;;10.13;4.78;;;8.80;56.30;;;;;;6185924;23;20005;-54
2021/04/17 00:10:34;;;;;;;9.25;4.72;;;8.80;56.40;;;;;;6185558;23;20072;-54
2021/04/17 00:13:00;;;;;;;7.53;4.70;;;8.80;56.40;;;;;;6185675;23;20067;-54
2021/04/17 00:15:26;;;;;;;10.32;5.10;;;8.80;56.40;;;;;;6185876;23;20012;-54
2021/04/17 00:17:51;;;;;;;8.63;4.88;;;8.70;56.40;;;;;;6185778;23;20012;-54
2021/04/17 00:20:17;;;;;;;8.20;4.38;;;8.80;56.40;;;;;;6185372;23;20377;-54
2021/04/17 00:22:43;;;;;;;8.77;4.57;;;8.80;56.50;;;;;;6185842;23;20013;-54
2021/04/17 00:25:09;;;;;;;12.90;4.13;;;8.80;56.50;;;;;;6186028;23;20055;-54
2021/04/17 00:27:34;;;;;;;8.93;4.05;;;8.80;56.40;;;;;;6185436;23;20063;-54
2021/04/17 00:30:00;;;;;;;6.55;3.75;;;8.80;56.50;;;;;;6185507;23;20005;-54
2021/04/17 00:32:25;;;;;;;8.95;4.28;;;8.80;56.50;;;;;;6185558;23;20009;-54
2021/04/17 00:34:51;;;;;;;12.35;4.68;;;8.70;56.40;;;;;;6185217;23;20015;-55
2021/04/17 00:37:16;;;;;;;11.10;5.15;;;8.80;56.50;;;;;;6185953;23;20009;-54
2021/04/17 00:39:42;;;;;;;9.85;5.07;;;8.70;56.50;;;;;;6185101;23;20009;-55
2021/04/17 00:42:08;;;;;;;9.70;4.88;;;8.70;56.50;;;;;;6185266;23;20409;-54
2021/04/17 00:44:35;;;;;;;11.90;5.00;;;8.70;56.40;;;;;;6185869;23;20059;-54
2021/04/17 00:47:04;;;;;;;12.30;5.45;;;8.70;56.50;;;;;;6185697;23;20009;-54
2021/04/17 00:49:30;;;;;;;11.63;5.50;;;8.70;56.50;;;;;;6185108;23;20302;-54
2021/04/17 00:51:56;;;;;;;9.07;4.93;;;8.70;56.50;;;;;;6186193;23;20167;-55
2021/04/17 00:54:22;;;;;;;15.25;5.82;;;8.70;57.20;;;;;;6187507;23;20016;-54
2021/04/17 00:56:47;;;;;;;15.27;6.32;;;8.70;56.60;;;;;;6187825;23;20009;-54
2021/04/17 00:59:13;;;;;;;12.02;5.38;;;8.70;56.60;;;;;;6187672;23;20028;-54
2021/04/17 01:01:39;;;;;;;14.88;5.00;;;8.70;56.60;;;;;;6187204;23;20310;-54
2021/04/17 01:04:20;;;;;;;14.15;6.78;;;8.60;56.60;;;;;;6187831;23;20012;-54
2021/04/17 01:06:51;;;;;;;13.80;5.97;;;8.60;56.70;;;;;;6187281;23;20389;-54
2021/04/17 01:09:29;;;;;;;13.70;6.53;;;8.70;56.70;;;;;;6187481;23;20389;-54
2021/04/17 01:12:01;;;;;;;10.55;6.00;;;8.70;56.70;;;;;;6187544;23;20005;-54
2021/04/17 01:14:28;;;;;;;14.85;6.28;;;8.60;56.70;;;;;;6187524;23;20464;-54
2021/04/17 01:16:56;;;;;;;13.27;6.00;;;8.60;56.70;;;;;;6187302;23;20297;-54
2021/04/17 01:19:39;;;;;;;12.15;6.10;;;8.60;56.80;;;;;;6186504;23;20396;-54
2021/04/17 01:22:14;;;;;;;12.05;6.15;;;8.60;56.80;;;;;;6187171;23;20443;-54
2021/04/17 01:24:43;;;;;;;11.68;5.57;;;8.70;56.80;;;;;;6187830;23;20005;-55
2021/04/17 01:27:09;;;;;;;13.60;6.55;;;8.60;56.80;;;;;;6187120;23;20001;-54
2021/04/17 01:29:37;;;;;;;10.30;5.80;;;8.60;56.80;;;;;;6186787;23;20037;-54
2021/04/17 01:32:07;;;;;;;21.45;6.05;;;8.60;56.90;;;;;;6186786;23;20428;-54
2021/04/17 01:34:33;;;;;;;12.98;6.50;;;8.60;56.90;;;;;;6187784;23;20012;-54
2021/04/17 01:37:00;;;;;;;13.48;5.95;;;8.70;56.90;;;;;;6187584;23;20021;-54
2021/04/17 01:39:28;;;;;;;12.43;6.75;;;8.60;56.90;;;;;;6187096;23;20032;-54
2021/04/17 01:41:56;;;;;;;11.73;6.30;;;8.60;56.90;;;;;;6186793;23;20013;-54
2021/04/17 01:44:26;;;;;;;12.00;6.32;;;8.60;56.90;;;;;;6187276;23;20016;-54
2021/04/17 01:47:01;;;;;;;13.13;7.13;;;8.60;56.90;;;;;;6187237;23;20071;-54
2021/04/17 01:49:29;;;;;;;16.27;7.00;;;8.60;56.90;;;;;;6186817;23;20077;-54
2021/04/17 01:51:56;;;;;;;12.85;6.65;;;8.60;56.90;;;;;;6187124;23;20002;-54
2021/04/17 01:54:27;;;;;;;15.73;5.90;;;8.60;56.90;;;;;;6187249;23;20001;-55
2021/04/17 01:56:57;;;;;;;12.88;6.03;;;8.60;56.90;;;;;;6187168;23;20008;-54
2021/04/17 01:59:26;;;;;;;17.52;7.25;;;8.60;56.90;;;;;;6186976;23;20001;-54
2021/04/17 02:01:52;;;;;;;10.23;5.63;;;8.60;57.00;;;;;;6187171;23;20021;-54
2021/04/17 02:04:18;;;;;;;12.60;6.45;;;8.60;57.10;;;;;;6186594;23;20350;-54
2021/04/17 02:06:44;;;;;;;12.23;6.78;;;8.60;57.00;;;;;;6187287;23;20016;-54
2021/04/17 02:09:10;;;;;;;10.65;5.55;;;8.60;57.10;;;;;;6186750;23;20293;-54
2021/04/17 02:11:35;;;;;;;13.93;6.50;;;8.60;57.00;;;;;;6186958;23;20035;-54
2021/04/17 02:14:01;;;;;;;16.48;7.40;;;8.60;57.10;;;;;;6187115;23;20341;-55
2021/04/17 02:16:31;;;;;;;12.00;6.38;;;8.60;57.50;;;;;;6186922;23;20012;-54
2021/04/17 02:18:59;;;;;;;14.30;7.13;;;8.60;57.10;;;;;;6186666;23;20009;-54
2021/04/17 02:21:42;;;;;;;16.75;6.90;;;8.60;57.10;;;;;;6186978;23;20128;-54
2021/04/17 02:24:08;;;;;;;17.65;7.25;;;8.60;57.10;;;;;;6186533;23;20005;-54
2021/04/17 02:26:36;;;;;;;14.20;6.57;;;8.60;57.10;;;;;;6187032;23;20056;-55
2021/04/17 02:29:02;;;;;;;13.52;6.78;;;8.50;57.00;;;;;;6186679;23;20005;-54
2021/04/17 02:31:28;;;;;;;18.48;7.20;;;8.50;57.00;;;;;;6186863;23;20334;-54
2021/04/17 02:33:55;;;;;;;15.77;6.97;;;8.50;57.10;;;;;;6186458;23;19997;-54
2021/04/17 02:36:20;;;;;;;16.80;7.28;;;8.60;57.10;;;;;;6186663;23;20400;-54
2021/04/17 02:38:46;;;;;;;14.85;6.82;;;8.60;57.10;;;;;;6186350;23;20040;-54
2021/04/17 02:41:13;;;;;;;13.52;6.40;;;8.60;57.10;;;;;;6186665;23;20009;-54
2021/04/17 02:43:43;;;;;;;15.75;7.15;;;8.60;57.10;;;;;;6186807;23;20012;-54
2021/04/17 02:46:10;;;;;;;16.02;6.97;;;8.60;57.10;;;;;;6182640;23;20084;-54
2021/04/17 02:48:36;;;;;;;14.95;6.55;;;8.50;57.10;;;;;;6186473;23;20005;-54
2021/04/17 02:51:02;;;;;;;17.13;6.80;;;8.50;57.10;;;;;;6186249;23;20341;-54
2021/04/17 02:53:28;;;;;;;15.80;6.55;;;8.50;57.10;;;;;;6186522;23;20008;-54
2021/04/17 02:55:55;;;;;;;15.23;6.75;;;8.50;57.20;;;;;;6186524;23;20347;-55
2021/04/17 02:58:21;;;;;;;17.17;7.22;;;8.50;57.10;;;;;;6186344;23;20115;-54
2021/04/17 03:00:47;;;;;;;15.35;7.35;;;8.50;57.20;;;;;;6186662;23;20001;-54
2021/04/17 03:03:12;;;;;;;13.82;7.35;;;8.50;57.20;;;;;;6186329;23;20020;-54
2021/04/17 03:05:38;;;;;;;18.92;7.57;;;8.50;57.20;;;;;;6186678;23;20001;-54
2021/04/17 03:08:04;;;;;;;17.73;7.63;;;8.50;57.20;;;;;;6186225;23;20016;-54
2021/04/17 03:10:30;;;;;;;14.88;7.25;;;8.50;57.20;;;;;;6186077;23;20345;-54
2021/04/17 03:12:56;;;;;;;13.85;7.22;;;8.50;57.20;;;;;;6187046;23;20009;-54
2021/04/17 03:15:22;;;;;;;16.73;7.65;;;8.50;57.20;;;;;;6186250;23;20011;-54
2021/04/17 03:17:47;;;;;;;15.18;7.90;;;8.50;57.20;;;;;;6186399;23;20009;-54
2021/04/17 03:20:14;;;;;;;13.15;6.70;;;8.50;57.20;;;;;;6185915;23;20016;-54
2021/04/17 03:22:39;;;;;;;11.65;6.53;;;8.50;57.30;;;;;;6186042;23;20096;-54
2021/04/17 03:25:09;;;;;;;14.90;7.50;;;8.50;57.30;;;;;;6186185;23;20032;-54
2021/04/17 03:27:35;;;;;;;14.73;6.57;;;8.50;57.20;;;;;;6186434;23;20008;-54
2021/04/17 03:30:00;;;;;;;13.82;6.53;;;8.50;57.30;;;;;;6186163;23;20009;-54
2021/04/17 03:32:27;;;;;;;16.30;6.75;;;8.50;57.20;;;;;;6186000;23;20139;-54
2021/04/17 03:34:52;;;;;;;14.77;7.15;;;8.50;57.20;;;;;;6186487;23;20008;-54
2021/04/17 03:37:18;;;;;;;13.02;6.68;;;8.50;57.30;;;;;;6185996;23;20009;-54
2021/04/17 03:39:43;;;;;;;12.27;6.80;;;8.50;57.20;;;;;;6185977;23;20028;-54
2021/04/17 03:42:09;;;;;;;17.35;7.47;;;8.50;57.20;;;;;;6186261;23;20019;-54
2021/04/17 03:44:35;;;;;;;15.95;7.53;;;8.50;57.30;;;;;;6186307;23;20001;-54
2021/04/17 03:47:00;;;;;;;15.35;6.68;;;8.50;57.30;;;;;;6185931;23;20274;-54
2021/04/17 03:49:26;;;;;;;15.35;7.43;;;8.50;57.20;;;;;;6185967;23;20008;-54
2021/04/17 03:51:52;;;;;;;13.60;6.60;;;8.50;57.30;;;;;;6185627;23;20087;-54
2021/04/17 03:54:18;;;;;;;17.85;7.53;;;8.50;57.30;;;;;;6186429;23;20075;-54
2021/04/17 03:56:43;;;;;;;14.50;7.15;;;8.50;57.30;;;;;;6185825;23;20011;-54
2021/04/17 03:59:09;;;;;;;14.90;6.55;;;8.40;57.20;;;;;;6185457;23;19997;-55
2021/04/17 04:01:34;;;;;;;14.90;6.80;;;8.50;57.30;;;;;;6185384;23;20012;-54
2021/04/17 04:04:00;;;;;;;13.73;6.97;;;8.40;57.20;;;;;;6185980;23;20058;-55
2021/04/17 04:06:26;;;;;;;16.00;6.70;;;8.40;57.30;;;;;;6185804;23;20124;-54
2021/04/17 04:08:52;;;;;;;19.33;7.75;;;8.50;57.30;;;;;;6185544;23;20013;-54
2021/04/17 04:11:18;;;;;;;16.52;7.07;;;8.50;57.30;;;;;;6185831;23;20001;-54
2021/04/17 04:13:44;;;;;;;14.82;6.75;;;8.40;57.20;;;;;;6186255;23;20009;-54
2021/04/17 04:16:09;;;;;;;18.50;8.65;;;8.40;57.20;;;;;;6185735;23;20080;-54
2021/04/17 04:18:35;;;;;;;16.10;7.57;;;8.40;57.30;;;;;;6185235;23;20028;-54
2021/04/17 04:21:00;;;;;;;18.00;8.32;;;8.50;57.30;;;;;;6185629;23;20009;-54
2021/04/17 04:23:26;;;;;;;14.73;7.18;;;8.50;57.30;;;;;;6185958;23;20084;-54
2021/04/17 04:25:52;;;;;;;19.55;8.30;;;8.40;57.20;;;;;;6186175;23;20289;-55
2021/04/17 04:28:18;;;;;;;14.02;7.18;;;8.50;57.30;;;;;;6185198;23;20059;-54
2021/04/17 04:30:44;;;;;;;17.50;7.57;;;8.50;57.30;;;;;;6185938;23;20001;-54
2021/04/17 04:33:09;;;;;;;18.73;6.75;;;8.50;57.30;;;;;;6185613;23;20352;-54
2021/04/17 04:35:35;;;;;;;15.60;6.90;;;8.50;57.30;;;;;;6185329;23;20001;-54
2021/04/17 04:38:01;;;;;;;12.52;6.80;;;8.50;57.30;;;;;;6185747;23;20009;-54
2021/04/17 04:40:26;;;;;;;15.95;7.63;;;8.50;57.30;;;;;;6183575;23;19997;-54
2021/04/17 04:42:52;;;;;;;15.95;7.10;;;8.50;57.30;;;;;;6185583;23;20181;-54
2021/04/17 04:45:18;;;;;;;15.20;7.25;;;8.50;57.30;;;;;;6185849;23;20043;-54
2021/04/17 04:47:44;;;;;;;22.50;7.90;;;8.50;57.30;;;;;;6185732;23;20305;-54
2021/04/17 04:50:10;;;;;;;14.38;6.57;;;8.50;57.30;;;;;;6185370;23;20001;-54
2021/04/17 04:52:36;;;;;;;15.65;7.30;;;8.50;57.30;;;;;;6185067;23;20401;-54
2021/04/17 04:55:04;;;;;;;16.88;7.25;;;8.50;57.30;;;;;;6185552;23;20132;-54
2021/04/17 04:57:29;;;;;;;14.32;7.38;;;8.50;57.90;;;;;;6185190;23;20005;-54
2021/04/17 04:59:55;;;;;;;16.55;7.18;;;8.50;57.30;;;;;;6185016;23;20008;-54
2021/04/17 05:02:20;;;;;;;16.05;6.78;;;8.50;57.30;;;;;;6183900;23;20013;-54
2021/04/17 05:04:46;;;;;;;15.77;7.70;;;8.50;57.30;;;;;;6184812;23;20073;-54
2021/04/17 05:07:12;;;;;;;15.10;6.70;;;8.50;57.30;;;;;;6185395;23;20393;-54
2021/04/17 05:09:38;;;;;;;14.43;7.10;;;8.50;57.30;;;;;;6185526;23;20028;-54
2021/04/17 05:12:04;;;;;;;17.17;6.22;;;8.50;57.30;;;;;;6185650;23;20005;-54
2021/04/17 05:14:30;;;;;;;15.88;5.78;;;8.50;57.30;;;;;;6185141;23;20008;-54
2021/04/17 05:16:56;;;;;;;12.55;6.28;;;8.60;57.30;;;;;;6185475;23;20009;-54
2021/04/17 05:19:21;;;;;;;15.30;7.63;;;8.60;57.20;;;;;;6184692;23;20479;-54
2021/04/17 05:21:47;;;;;;;11.93;6.38;;;8.60;57.20;;;;;;6185464;23;20009;-54
2021/04/17 05:24:13;;;;;;;12.45;6.25;;;8.60;57.20;;;;;;6185335;23;20060;-54
2021/04/17 05:26:38;;;;;;;13.30;5.90;;;8.60;57.20;;;;;;6185250;23;20005;-54
2021/04/17 05:29:04;;;;;;;14.02;5.97;;;8.60;57.10;;;;;;6184656;23;19997;-54
2021/04/17 05:31:30;;;;;;;12.02;5.43;;;8.60;57.10;;;;;;6185695;23;19997;-54
2021/04/17 05:33:56;;;;;;;11.55;6.03;;;8.60;57.10;;;;;;6184763;23;20274;-54
2021/04/17 05:36:22;;;;;;;14.95;6.03;;;8.60;57.10;;;;;;6185281;23;20028;-54
2021/04/17 05:38:48;;;;;;;14.95;7.20;;;8.60;57.10;;;;;;6185561;23;20100;-54
2021/04/17 05:41:13;;;;;;;12.65;5.85;;;8.70;57.10;;;;;;6187034;23;20392;-54
2021/04/17 05:43:39;;;;;;;15.63;6.60;;;8.70;57.10;;;;;;6186363;23;20032;-54
2021/04/17 05:46:05;;;;;;;13.77;6.80;;;8.70;57.10;;;;;;6187182;23;19997;-54
2021/04/17 05:48:30;;;;;;;17.02;7.82;;;8.70;57.10;;;;;;6186179;23;20067;-54
2021/04/17 05:50:57;;;;;;;11.77;6.30;;;8.70;57.10;;;;;;6186567;23;20007;-55
2021/04/17 05:53:24;;;;;;;15.70;7.68;;;8.70;57.10;;;;;;6186306;23;20416;-54
2021/04/17 05:55:50;;;;;;;15.35;7.10;;;8.70;57.00;;;;;;6186842;23;20060;-54
2021/04/17 05:58:16;;;;;;;13.27;6.30;;;8.70;57.00;;;;;;6186803;23;20001;-54
2021/04/17 06:00:41;;;;;;;13.35;6.30;;;8.70;57.10;;;;;;6186925;23;20012;-54
2021/04/17 06:03:07;;;;;;;14.30;7.43;;;8.70;57.00;;;;;;6186626;23;20020;-54
2021/04/17 06:05:33;;;;;;;18.35;7.70;;;8.80;57.10;;;;;;6187179;23;20012;-54
2021/04/17 06:07:58;;;;;;;14.75;7.00;;;8.80;57.10;;;;;;6186772;23;20005;-54
2021/04/17 06:10:24;;;;;;;15.48;7.93;;;8.80;57.60;;;;;;6186906;23;20055;-54
2021/04/17 06:12:50;;;;;;;15.23;7.22;;;8.80;57.10;;;;;;6209293;23;20016;-54
2021/04/17 06:15:16;;;;;;;20.02;8.52;;;8.80;57.10;;;;;;6187164;23;20072;-54
2021/04/17 06:17:41;;;;;;;20.27;8.38;;;8.80;57.10;;;;;;6186507;23;20342;-54
2021/04/17 06:20:08;;;;;;;20.05;8.07;;;8.80;57.10;;;;;;6186199;23;20020;-54
2021/04/17 06:22:34;;;;;;;19.52;7.97;;;8.80;57.10;;;;;;6186604;23;20440;-54
2021/04/17 06:24:59;;;;;;;18.83;8.77;;;8.80;57.10;;;;;;6185778;23;20001;-54
2021/04/17 06:27:25;;;;;;;15.23;7.78;;;8.90;57.10;;;;;;6186008;23;20005;-54
2021/04/17 06:29:51;;;;;;;20.10;8.60;;;8.90;57.10;;;;;;6185200;23;20032;-54
2021/04/17 06:32:16;;;;;;;23.25;9.48;;;8.90;57.10;;;;;;6183091;23;20012;-54
2021/04/17 06:34:42;;;;;;;17.35;8.25;;;8.90;57.10;;;;;;6185661;23;20157;-54
2021/04/17 06:37:07;;;;;;;19.55;8.60;;;8.90;57.10;;;;;;6186475;23;20400;-54
2021/04/17 06:39:33;;;;;;;19.02;8.85;;;8.90;57.10;;;;;;6185500;23;20297;-54
2021/04/17 06:42:01;;;;;;;26.80;12.23;;;8.90;57.20;;;;;;6185768;23;20012;-54
2021/04/17 06:44:28;;;;;;;24.92;7.95;;;8.90;57.10;;;;;;6186374;23;20028;-54
2021/04/17 06:46:54;;;;;;;20.35;9.73;;;8.90;57.20;;;;;;6186616;23;20005;-54
2021/04/17 06:49:20;;;;;;;21.02;8.93;;;9.00;57.30;;;;;;6185412;23;20076;-54
2021/04/17 06:51:47;;;;;;;28.13;9.38;;;9.00;57.30;;;;;;6186359;23;20008;-54
2021/04/17 06:54:18;;;;;;;26.55;11.63;;;9.00;57.30;;;;;;6186507;23;20005;-55
2021/04/17 06:56:44;;;;;;;19.88;9.25;;;9.00;57.20;;;;;;6186471;23;20047;-54
2021/04/17 06:59:10;;;;;;;23.77;9.48;;;9.00;57.30;;;;;;6185808;23;20004;-54
2021/04/17 07:01:39;;;;;;;21.27;9.18;;;9.00;57.20;;;;;;6186798;23;20016;-54
2021/04/17 07:04:05;;;;;;;25.17;9.30;;;9.00;57.30;;;;;;6186176;23;20005;-54
2021/04/17 07:06:31;;;;;;;21.92;8.77;;;9.00;57.30;;;;;;6186256;23;20467;-54
2021/04/17 07:08:57;;;;;;;19.30;9.00;;;9.10;57.40;;;;;;6186326;23;20005;-54
2021/04/17 07:11:23;;;;;;;20.88;9.35;;;9.10;57.40;;;;;;6186193;23;20012;-54
2021/04/17 07:14:07;;;;;;;15.13;7.05;;;9.10;57.30;;;;;;6184966;23;20116;-54
2021/04/17 07:16:32;;;;;;;18.48;8.48;;;9.10;57.30;;;;;;6186300;23;20005;-55
2021/04/17 07:18:58;;;;;;;19.10;8.75;;;9.10;57.30;;;;;;6185956;23;20028;-55
2021/04/17 07:21:27;;;;;;;20.67;8.82;;;9.10;57.40;;;;;;6186245;23;20400;-54
2021/04/17 07:23:53;;;;;;;17.17;8.13;;;9.20;57.40;;;;;;6186043;23;20088;-54
2021/04/17 07:26:25;;;;;;;16.45;6.93;;;9.20;57.40;;;;;;6184810;23;20052;-54
2021/04/17 07:29:13;;;;;;;19.08;7.57;;;9.20;57.40;;;;;;6184174;23;20013;-54
2021/04/17 07:31:48;;;;;;;16.40;7.68;;;9.30;57.50;;;;;;6183175;23;20338;-54
2021/04/17 07:34:18;;;;;;;26.08;10.23;;;9.40;57.60;;;;;;6184474;23;20009;-54
2021/04/17 07:36:55;;;;;;;23.45;10.30;;;9.40;57.60;;;;;;6184583;23;20308;-54
2021/04/17 07:39:39;;;;;;;25.48;10.95;;;9.40;57.80;;;;;;6184282;23;20005;-54
2021/04/17 07:42:09;;;;;;;19.60;9.20;;;9.40;57.80;;;;;;6185763;23;20016;-54
2021/04/17 07:44:37;;;;;;;25.05;11.23;;;9.40;57.90;;;;;;6186117;23;20001;-54
2021/04/17 07:47:04;;;;;;;26.75;11.13;;;9.50;58.00;;;;;;6185778;23;20480;-54
2021/04/17 07:49:30;;;;;;;22.15;10.15;;;9.50;57.90;;;;;;6185883;23;20076;-54
2021/04/17 07:52:11;;;;;;;26.98;11.48;;;9.50;58.00;;;;;;6186270;23;20028;-54
2021/04/17 07:54:53;;;;;;;19.40;9.40;;;9.60;58.10;;;;;;6186174;23;20001;-54
2021/04/17 07:57:18;;;;;;;20.83;9.15;;;9.60;57.80;;;;;;6186040;23;20348;-54
2021/04/17 07:59:46;;;;;;;20.70;9.32;;;9.70;57.90;;;;;;6185816;23;20063;-54
2021/04/17 08:02:14;;;;;;;20.95;8.93;;;9.70;57.80;;;;;;6186159;23;20013;-54
2021/04/17 08:04:40;;;;;;;21.17;8.93;;;9.70;57.80;;;;;;6185968;23;20007;-54
2021/04/17 08:07:07;;;;;;;25.92;10.50;;;9.70;57.90;;;;;;6186097;23;20009;-53
2021/04/17 08:09:35;;;;;;;18.50;8.52;;;9.80;57.70;;;;;;6185200;23;20161;-54
2021/04/17 08:12:01;;;;;;;18.65;9.15;;;9.80;57.70;;;;;;6186230;23;20055;-54
2021/04/17 08:14:28;;;;;;;23.35;7.97;;;9.90;57.60;;;;;;6185620;23;20005;-54
2021/04/17 08:16:54;;;;;;;18.85;8.38;;;9.90;57.70;;;;;;6185745;23;20407;-54
2021/04/17 08:19:21;;;;;;;21.83;9.75;;;9.90;57.80;;;;;;6185389;23;20009;-54
2021/04/17 08:21:51;;;;;;;17.38;8.50;;;9.90;57.80;;;;;;6185505;23;20409;-54
2021/04/17 08:24:25;;;;;;;17.63;8.55;;;9.90;57.90;;;;;;6185332;23;20358;-54
2021/04/17 08:26:55;;;;;;;17.88;7.88;;;9.90;57.90;;;;;;6185983;23;20007;-54
2021/04/17 08:29:53;;;;;;;16.23;8.63;;;10.00;57.60;;;;;;6185497;23;20009;-54
2021/04/17 08:32:40;;;;;;;16.98;8.45;;;10.00;57.50;;;;;;6186008;23;20005;-54
2021/04/17 08:35:11;;;;;;;14.20;7.38;;;10.00;57.60;;;;;;6185856;23;20005;-54
2021/04/17 08:37:55;;;;;;;21.63;9.48;;;10.10;57.80;;;;;;6185959;23;20001;-54
2021/04/17 08:40:36;;;;;;;19.63;9.85;;;10.10;57.50;;;;;;6185515;23;20001;-54
2021/04/17 08:43:13;;;;;;;21.58;9.30;;;10.10;57.60;;;;;;6185025;23;20009;-54
2021/04/17 08:46:15;;;;;;;17.73;7.97;;;10.10;57.70;;;;;;6185401;23;20017;-54
2021/04/17 08:48:45;;;;;;;14.75;8.00;;;10.10;57.50;;;;;;6185519;23;20004;-54
2021/04/17 08:51:36;;;;;;;19.58;7.10;;;10.10;57.50;;;;;;6185061;23;20012;-54
2021/04/17 08:54:01;;;;;;;20.02;7.90;;;10.10;57.40;;;;;;6186064;23;20049;-54
2021/04/17 08:56:47;;;;;;;12.73;6.97;;;10.20;57.50;;;;;;6185797;23;19997;-54
2021/04/17 08:59:17;;;;;;;13.15;7.35;;;10.10;57.40;;;;;;6185173;23;20005;-53
2021/04/17 09:01:43;;;;;;;15.77;8.88;;;10.20;57.60;;;;;;6185071;23;20013;-54
2021/04/17 09:04:11;;;;;;;21.02;8.00;;;10.20;57.60;;;;;;6185642;23;20028;-54
2021/04/17 09:06:46;;;;;;;16.25;7.72;;;10.20;57.60;;;;;;6185428;23;20008;-55
2021/04/17 09:09:21;;;;;;;16.05;7.82;;;10.20;57.50;;;;;;6185306;23;20036;-54
2021/04/17 09:11:49;;;;;;;16.20;6.70;;;10.20;57.40;;;;;;6185450;23;20033;-54
2021/04/17 09:14:31;;;;;;;11.30;5.43;;;10.20;57.30;;;;;;6186422;23;20413;-54
2021/04/17 09:17:02;;;;;;;12.45;6.25;;;10.20;57.30;;;;;;6187630;23;20012;-54
2021/04/17 09:19:44;;;;;;;;;;;10.20;57.30;;;;;;6187768;23;20181;-54
2021/04/17 09:22:28;;;;;;;10.02;5.55;;;10.30;57.30;;;;;;6187759;23;19931;-54
2021/04/17 09:25:00;;;;;;;12.65;5.88;;;10.30;57.40;;;;;;6187385;23;20079;-54
2021/04/17 09:27:37;;;;;;;10.82;5.35;;;10.30;57.20;;;;;;6187397;23;20051;-54
2021/04/17 09:30:21;;;;;;;14.40;6.60;;;10.30;57.10;;;;;;6187231;23;20271;-54
2021/04/17 09:32:55;;;;;;;15.05;6.90;;;10.30;57.10;;;;;;6187697;23;20001;-54
2021/04/17 09:35:33;;;;;;;14.40;6.72;;;10.40;57.30;;;;;;6187530;23;20004;-54
2021/04/17 09:38:07;;;;;;;13.52;6.80;;;10.30;57.30;;;;;;6187646;23;20017;-54
2021/04/17 09:40:52;;;;;;;17.40;7.05;;;10.40;57.30;;;;;;6187351;23;20015;-54
2021/04/17 09:43:29;;;;;;;13.50;6.32;;;10.30;57.20;;;;;;6187284;23;20397;-54
2021/04/17 09:45:58;;;;;;;15.20;7.18;;;10.40;57.20;;;;;;6187201;23;19997;-54
2021/04/17 09:48:25;;;;;;;11.25;5.85;;;10.40;57.10;;;;;;6187192;23;20336;-54
2021/04/17 09:50:56;;;;;;;9.50;4.45;;;10.40;57.10;;;;;;6187402;23;20012;-54
2021/04/17 09:53:29;;;;;;;9.60;5.20;;;10.40;57.20;;;;;;6187196;23;20353;-54
2021/04/17 09:55:59;;;;;;;10.23;4.13;;;10.40;57.70;;;;;;6186882;23;20021;-54
2021/04/17 09:58:32;;;;;;;12.13;5.47;;;10.40;57.20;;;;;;6187055;23;20005;-54
2021/04/17 10:01:24;;;;;;;10.25;4.00;;;10.40;57.10;;;;;;6187099;23;20010;-54
2021/04/17 10:03:56;;;;;;;7.65;4.07;;;10.40;57.20;;;;;;6184191;23;20013;-54
2021/04/17 10:06:28;;;;;;;7.20;4.40;;;10.40;57.10;;;;;;6186920;23;20008;-54
2021/04/17 10:09:16;;;;;;;6.20;3.28;;;10.40;57.10;;;;;;6186992;23;20037;-56
2021/04/17 10:11:43;;;;;;;6.38;4.10;;;10.40;56.70;;;;;;6187168;23;20048;-61
2021/04/17 10:14:11;;;;;;;5.97;3.50;;;10.40;55.30;;;;;;6186755;23;20463;-56
2021/04/17 10:16:41;;;;;;;9.23;4.38;;;10.30;54.40;;;;;;6186643;23;20012;-56
2021/04/17 10:19:20;;;;;;;9.85;4.60;;;10.20;54.60;;;;;;6186411;23;20076;-56
2021/04/17 10:21:56;;;;;;;7.45;4.13;;;10.20;54.10;;;;;;6186939;23;20005;-56
2021/04/17 10:24:24;;;;;;;6.88;4.07;;;10.10;54.40;;;;;;6186771;23;20002;-56
2021/04/17 10:27:10;;;;;;;5.88;3.55;;;10.10;53.60;;;;;;6186433;23;20001;-56
2021/04/17 10:29:47;;;;;;;7.32;4.18;;;10.10;53.60;;;;;;6184967;23;20012;-56
2021/04/17 10:32:17;;;;;;;10.25;4.70;;;10.10;53.20;;;;;;6186568;23;20005;-56
2021/04/17 10:34:44;;;;;;;9.30;4.00;;;10.00;53.40;;;;;;6186872;23;20076;-56
2021/04/17 10:37:14;;;;;;;5.68;3.63;;;10.00;53.40;;;;;;6186427;23;20229;-57
2021/04/17 10:40:03;;;;;;;7.68;3.65;;;10.00;53.40;;;;;;6186158;23;20009;-56
2021/04/17 10:42:53;;;;;;;14.43;3.20;;;10.00;53.30;;;;;;6186679;23;20041;-57
2021/04/17 10:45:20;;;;;;;5.57;2.92;;;10.00;52.90;;;;;;6187026;23;20009;-56
2021/04/17 10:47:56;;;;;;;5.18;3.20;;;10.00;53.30;;;;;;6185997;23;20013;-56
2021/04/17 10:50:24;;;;;;;7.30;3.10;;;10.00;52.90;;;;;;6186186;23;20005;-56
2021/04/17 10:53:06;;;;;;;6.72;3.70;;;10.00;52.60;;;;;;6186382;23;20081;-56
2021/04/17 10:55:41;;;;;;;12.63;3.80;;;10.00;52.90;;;;;;6186212;23;20080;-56
2021/04/17 10:58:20;;;;;;;5.40;3.10;;;10.00;52.80;;;;;;6186225;23;19998;-56
2021/04/17 11:01:11;;;;;;;8.05;3.67;;;9.90;53.10;;;;;;6186533;23;20463;-56
2021/04/17 11:03:44;;;;;;;;;;;10.00;53.00;;;;;;6178632;23;20009;-57
2021/04/17 11:06:18;;;;;;;4.57;3.33;;;10.00;53.00;;;;;;6186280;23;19901;-56
2021/04/17 11:08:46;;;;;;;7.32;3.95;;;10.00;53.20;;;;;;6184501;23;20001;-56
2021/04/17 11:11:14;;;;;;;8.00;3.30;;;10.00;53.30;;;;;;6185708;23;20424;-56
2021/04/17 11:13:43;;;;;;;6.90;3.70;;;10.00;53.30;;;;;;6185639;23;20001;-56
2021/04/17 11:16:09;;;;;;;7.90;3.38;;;10.10;53.20;;;;;;6186297;23;20464;-56
2021/04/17 11:18:37;;;;;;;7.50;2.40;;;10.00;53.20;;;;;;6185862;23;20071;-57
2021/04/17 11:21:15;;;;;;;4.95;2.45;;;10.00;52.70;;;;;;6186403;23;20448;-56
2021/04/17 11:23:52;;;;;;;4.90;2.80;;;10.00;53.00;;;;;;6186205;23;20089;-56
2021/04/17 11:26:29;;;;;;;5.25;1.73;;;10.00;52.50;;;;;;6184908;23;20008;-55
2021/04/17 11:28:58;;;;;;;4.88;2.95;;;10.10;52.40;;;;;;6184844;23;20001;-56
2021/04/17 11:31:32;;;;;;;5.07;2.50;;;10.10;52.50;;;;;;6185349;23;20009;-56
2021/04/17 11:33:59;;;;;;;6.20;2.50;;;10.10;52.40;;;;;;6186184;23;20039;-56
2021/04/17 11:36:27;;;;;;;4.35;2.00;;;10.00;52.30;;;;;;6185127;23;20293;-56
2021/04/17 11:38:54;;;;;;;4.60;2.33;;;10.10;52.30;;;;;;6184240;23;20012;-56
2021/04/17 11:41:21;;;;;;;3.28;2.38;;;10.10;52.20;;;;;;6185952;23;20132;-56
2021/04/17 11:43:46;;;;;;;3.03;2.17;;;10.10;51.90;;;;;;6186339;23;20033;-56
2021/04/17 11:46:17;;;;;;;4.65;2.20;;;10.10;52.10;;;;;;6186124;23;20450;-56
2021/04/17 11:48:44;;;;;;;6.47;2.25;;;10.10;52.20;;;;;;6185834;23;20016;-56
2021/04/17 11:51:12;;;;;;;6.72;2.20;;;10.10;51.90;;;;;;6185801;23;20002;-56
2021/04/17 11:53:38;;;;;;;3.80;1.90;;;10.10;51.90;;;;;;6185300;23;20282;-55
2021/04/17 11:56:05;;;;;;;6.68;2.35;;;10.10;51.80;;;;;;6184920;23;20377;-56
2021/04/17 11:58:31;;;;;;;4.40;2.60;;;10.10;51.60;;;;;;6183960;23;20024;-55
2021/04/17 12:00:56;;;;;;;5.72;2.58;;;10.10;51.80;;;;;;6185047;23;19997;-56
2021/04/17 12:03:23;;;;;;;5.05;2.60;;;10.10;51.70;;;;;;6184761;23;20020;-56
2021/04/17 12:05:53;;;;;;;5.68;2.53;;;10.10;51.80;;;;;;6185068;23;20001;-56
2021/04/17 12:08:19;;;;;;;6.07;1.88;;;10.10;51.80;;;;;;6184614;23;20020;-56
2021/04/17 12:10:46;;;;;;;6.82;2.03;;;10.10;51.80;;;;;;6185384;23;20024;-56
2021/04/17 12:13:12;;;;;;;4.38;1.95;;;10.10;51.50;;;;;;6185953;23;20012;-56
2021/04/17 12:15:39;;;;;;;9.45;2.60;;;10.10;51.70;;;;;;6186229;23;20001;-56
2021/04/17 12:18:05;;;;;;;2.40;1.92;;;10.10;51.20;;;;;;6185751;23;20027;-56
2021/04/17 12:20:31;;;;;;;2.67;1.50;;;10.10;51.50;;;;;;6185416;23;20468;-56
2021/04/17 12:22:57;;;;;;;4.78;2.15;;;10.10;51.50;;;;;;6185995;23;20091;-56
2021/04/17 12:25:23;;;;;;;5.38;2.10;;;10.10;51.60;;;;;;6185520;23;20028;-56
2021/04/17 12:27:50;;;;;;;2.72;1.83;;;10.10;51.70;;;;;;6186015;23;20028;-56
2021/04/17 12:30:16;;;;;;;2.10;1.63;;;10.10;51.60;;;;;;6185756;23;20055;-56
2021/04/17 12:32:42;;;;;;;7.05;2.92;;;10.10;51.80;;;;;;6185804;23;20012;-56
2021/04/17 12:35:11;;;;;;;4.75;2.67;;;10.10;51.80;;;;;;6186002;23;20005;-55
2021/04/17 12:37:37;;;;;;;4.25;2.15;;;10.10;51.70;;;;;;6184135;23;20001;-55
2021/04/17 12:40:04;;;;;;;5.80;2.90;;;10.10;51.30;;;;;;6182510;23;20005;-56
2021/04/17 12:42:29;;;;;;;5.65;2.38;;;10.10;51.70;;;;;;6182999;23;20243;-55
2021/04/17 12:44:55;;;;;;;4.72;3.03;;;10.10;51.60;;;;;;6184602;23;20009;-55
2021/04/17 12:47:20;;;;;;;3.92;2.38;;;10.10;51.70;;;;;;6183857;23;20009;-56
2021/04/17 12:49:46;;;;;;;5.38;2.67;;;10.10;51.50;;;;;;6183837;23;20031;-56
2021/04/17 12:52:12;;;;;;;3.33;2.03;;;10.10;51.60;;;;;;6185247;23;20009;-56
2021/04/17 12:54:37;;;;;;;6.70;2.20;;;10.10;51.70;;;;;;6184676;23;20005;-58